createdAt,value
2022-10-23T00:01:57.460Z,95642.81
2022-10-23T00:04:26.043Z,95640.63
2022-10-23T00:06:53.203Z,95631.31
2022-10-23T00:09:22.862Z,95628.81
2022-10-23T00:11:51.985Z,95628.16
2022-10-23T00:14:22.585Z,95623.22
2022-10-23T00:16:50.139Z,95623.94
2022-10-23T00:19:17.785Z,95632.56
2022-10-23T00:21:46.440Z,95624.16
2022-10-23T00:24:13.530Z,95619.78
2022-10-23T00:26:41.328Z,95619.34
2022-10-23T00:29:09.561Z,95608.16
2022-10-23T00:31:36.685Z,95619.44
2022-10-23T00:34:04.119Z,95623.69
2022-10-23T00:36:31.234Z,95621.28
2022-10-23T00:38:59.824Z,95624.25
2022-10-23T00:41:28.981Z,95625.06
2022-10-23T00:44:00.041Z,95625.31
2022-10-23T00:46:27.361Z,95625.53
2022-10-23T00:48:54.701Z,95616.81
2022-10-23T00:51:22.621Z,95620.81
2022-10-23T00:54:01.408Z,95622.16
2022-10-23T00:56:45.948Z,95620.00
2022-10-23T00:59:13.503Z,95619.19
2022-10-23T01:01:41.437Z,95618.31
2022-10-23T01:04:10.193Z,95621.53
2022-10-23T01:06:42.582Z,95628.91
2022-10-23T01:09:18.680Z,95620.16
2022-10-23T01:11:55.625Z,95614.53
2022-10-23T01:14:32.000Z,95613.47
2022-10-23T01:17:09.560Z,95621.91
2022-10-23T01:19:56.200Z,95614.41
2022-10-23T01:22:45.304Z,95620.75
2022-10-23T01:25:28.659Z,95623.03
2022-10-23T01:28:05.021Z,95624.47
2022-10-23T01:30:36.148Z,95621.34
2022-10-23T01:33:10.121Z,95620.53
2022-10-23T01:35:46.042Z,95604.47
2022-10-23T01:38:19.859Z,95600.72
2022-10-23T01:40:55.761Z,95598.31
2022-10-23T01:43:29.480Z,95598.38
2022-10-23T01:46:01.799Z,95607.22
2022-10-23T01:48:32.219Z,95601.91
2022-10-23T01:51:06.141Z,95595.50
2022-10-23T01:53:39.379Z,95597.56
2022-10-23T01:56:11.582Z,95596.00
2022-10-23T01:58:46.059Z,95582.09
2022-10-23T02:01:18.484Z,95579.03
2022-10-23T02:03:48.567Z,95583.31
2022-10-23T02:06:16.040Z,95583.47
2022-10-23T02:08:43.462Z,95576.09
2022-10-23T02:11:14.279Z,95574.72
2022-10-23T02:13:51.942Z,95571.59
2022-10-23T02:16:29.741Z,95567.91
2022-10-23T02:19:11.142Z,95555.88
2022-10-23T02:21:50.501Z,95571.09
2022-10-23T02:24:25.639Z,95570.69
2022-10-23T02:26:56.101Z,95575.25
2022-10-23T02:29:31.087Z,95569.59
2022-10-23T02:31:58.501Z,95560.31
2022-10-23T02:34:25.540Z,95566.44
2022-10-23T02:36:53.022Z,95552.03
2022-10-23T02:39:21.422Z,95550.16
2022-10-23T02:41:56.540Z,95551.78
2022-10-23T02:44:39.243Z,95556.03
2022-10-23T02:47:21.581Z,95553.06
2022-10-23T02:50:02.821Z,95542.63
2022-10-23T02:52:41.786Z,95542.38
2022-10-23T02:55:27.760Z,95539.59
2022-10-23T02:58:01.900Z,95540.41
2022-10-23T03:00:33.195Z,95543.41
2022-10-23T03:03:10.141Z,95536.16
2022-10-23T03:05:41.520Z,95543.28
2022-10-23T03:08:10.419Z,95537.06
2022-10-23T03:10:37.824Z,95539.16
2022-10-23T03:13:04.960Z,95534.28
2022-10-23T03:15:33.542Z,95524.22
2022-10-23T03:18:00.641Z,95508.22
2022-10-23T03:20:27.720Z,95501.34
2022-10-23T03:22:54.779Z,95510.31
2022-10-23T03:25:21.807Z,95515.59
2022-10-23T03:27:48.820Z,95510.88
2022-10-23T03:30:17.102Z,95513.75
2022-10-23T03:32:45.937Z,95507.59
2022-10-23T03:35:13.181Z,95524.41
2022-10-23T03:37:40.270Z,95525.69
2022-10-23T03:40:09.120Z,95538.59
2022-10-23T03:42:36.160Z,95535.81
2022-10-23T03:45:03.822Z,95541.31
2022-10-23T03:47:31.099Z,95526.91
2022-10-23T03:49:59.660Z,95543.56
2022-10-23T03:52:26.851Z,95536.59
2022-10-23T03:54:53.981Z,95532.34
2022-10-23T03:57:21.060Z,95531.03
2022-10-23T03:59:48.122Z,95523.91
2022-10-23T04:02:15.298Z,95519.81
2022-10-23T04:04:42.464Z,95527.50
2022-10-23T04:07:11.122Z,95529.75
2022-10-23T04:09:38.380Z,95536.88
2022-10-23T04:12:06.445Z,95526.69
2022-10-23T04:14:33.484Z,95527.75
2022-10-23T04:17:00.561Z,95532.28
2022-10-23T04:19:27.760Z,95527.91
2022-10-23T04:21:54.860Z,95522.72
2022-10-23T04:24:23.421Z,95527.81
2022-10-23T04:26:50.581Z,95533.03
2022-10-23T04:29:18.181Z,95534.00
2022-10-23T04:31:45.350Z,95538.06
2022-10-23T04:34:12.401Z,95539.44
2022-10-23T04:36:39.481Z,95538.69
2022-10-23T04:39:06.542Z,95524.41
2022-10-23T04:41:35.142Z,95523.47
2022-10-23T04:44:02.159Z,95520.25
2022-10-23T04:46:29.224Z,95521.78
2022-10-23T04:48:56.339Z,95531.78
2022-10-23T04:51:23.442Z,95522.34
2022-10-23T04:53:50.500Z,95527.75
2022-10-23T04:56:17.543Z,95521.19
2022-10-23T04:58:46.064Z,95531.91
2022-10-23T05:01:13.290Z,95533.66
2022-10-23T05:03:40.479Z,95536.41
2022-10-23T05:06:07.721Z,95539.06
2022-10-23T05:08:34.781Z,95538.81
2022-10-23T05:11:01.881Z,95540.66
2022-10-23T05:13:29.179Z,95543.84
2022-10-23T05:15:59.421Z,95533.09
2022-10-23T05:18:32.662Z,95518.03
2022-10-23T05:21:05.361Z,95521.25
2022-10-23T05:23:37.100Z,95525.16
2022-10-23T05:26:05.041Z,95529.19
2022-10-23T05:28:32.161Z,95532.63
2022-10-23T05:31:04.833Z,95532.72
2022-10-23T05:33:34.960Z,95532.72
2022-10-23T05:36:03.203Z,95536.50
2022-10-23T05:38:34.989Z,95534.53
2022-10-23T05:41:02.261Z,95528.13
2022-10-23T05:43:29.421Z,95524.00
2022-10-23T05:45:56.440Z,95521.63
2022-10-23T05:48:34.265Z,95517.59
2022-10-23T05:51:06.692Z,95524.94
2022-10-23T05:53:36.103Z,95526.56
2022-10-23T05:56:07.401Z,95527.22
2022-10-23T05:58:34.780Z,95527.72
2022-10-23T06:01:05.740Z,95531.38
2022-10-23T06:03:34.693Z,95539.25
2022-10-23T06:06:01.967Z,95523.09
2022-10-23T06:08:30.362Z,95513.19
2022-10-23T06:10:57.501Z,95508.34
2022-10-23T06:13:24.940Z,95519.06
2022-10-23T06:15:52.022Z,95528.59
2022-10-23T06:18:19.201Z,95535.41
2022-10-23T06:20:47.721Z,95523.44
2022-10-23T06:23:14.884Z,95533.19
2022-10-23T06:25:41.880Z,95532.97
2022-10-23T06:28:08.922Z,95528.69
2022-10-23T06:33:11.182Z,95531.78
2022-10-23T06:35:38.221Z,95534.41
2022-10-23T06:38:06.682Z,95536.03
2022-10-23T06:40:33.682Z,95523.03
2022-10-23T06:43:00.760Z,95530.19
2022-10-23T06:45:27.862Z,95531.78
2022-10-23T06:47:54.959Z,95526.81
2022-10-23T06:50:22.561Z,95522.09
2022-10-23T06:52:49.641Z,95514.97
2022-10-23T06:55:18.406Z,95521.41
2022-10-23T06:57:45.848Z,95518.44
2022-10-23T07:00:13.964Z,95523.59
2022-10-23T07:02:41.508Z,95517.88
2022-10-23T07:05:12.777Z,95525.34
2022-10-23T07:07:41.063Z,95530.16
2022-10-23T07:10:08.725Z,95513.91
2022-10-23T07:12:37.303Z,95518.59
2022-10-23T07:15:05.361Z,95534.28
2022-10-23T07:17:32.362Z,95522.31
2022-10-23T07:19:59.348Z,95528.75
2022-10-23T07:22:26.361Z,95524.56
2022-10-23T07:24:53.420Z,95524.91
2022-10-23T07:27:20.481Z,95520.72
2022-10-23T07:29:52.620Z,95520.47
2022-10-23T07:32:19.881Z,95513.97
2022-10-23T07:34:47.005Z,95524.56
2022-10-23T07:37:14.041Z,95517.91
2022-10-23T07:39:41.122Z,95506.34
2022-10-23T07:42:10.125Z,95510.00
2022-10-23T07:44:37.201Z,95508.81
2022-10-23T07:47:05.720Z,95501.91
2022-10-23T07:49:32.762Z,95503.94
2022-10-23T07:51:59.882Z,95502.81
2022-10-23T07:54:27.122Z,95493.94
2022-10-23T07:56:54.201Z,95498.25
2022-10-23T07:59:21.281Z,95494.25
2022-10-23T08:01:50.553Z,95503.56
2022-10-23T08:04:21.382Z,95497.94
2022-10-23T08:06:48.901Z,95498.75
2022-10-23T08:09:15.900Z,95497.75
2022-10-23T08:11:44.022Z,95502.13
2022-10-23T08:14:11.081Z,95503.94
2022-10-23T08:16:39.604Z,95500.75
2022-10-23T08:19:08.342Z,95499.53
2022-10-23T08:21:36.842Z,95507.56
2022-10-23T08:24:04.741Z,95503.41
2022-10-23T08:26:31.901Z,95505.13
2022-10-23T08:28:59.902Z,95506.72
2022-10-23T08:31:28.161Z,95500.47
2022-10-23T08:33:55.346Z,95501.41
2022-10-23T08:36:24.721Z,95509.63
2022-10-23T08:38:55.660Z,95499.59
2022-10-23T08:41:27.582Z,95494.91
2022-10-23T08:44:02.458Z,95501.03
2022-10-23T08:46:34.783Z,95493.19
2022-10-23T08:49:21.102Z,95485.03
2022-10-23T08:51:52.621Z,95483.19
2022-10-23T08:54:26.781Z,95487.47
2022-10-23T08:57:01.323Z,95484.00
2022-10-23T08:59:35.483Z,95485.88
2022-10-23T09:02:14.861Z,95482.66
2022-10-23T09:04:47.561Z,95479.97
2022-10-23T09:07:30.323Z,95475.69
2022-10-23T09:10:17.343Z,95481.25
2022-10-23T09:12:44.621Z,95473.53
2022-10-23T09:15:22.440Z,95469.50
2022-10-23T09:17:57.701Z,95457.47
2022-10-23T09:20:27.683Z,95460.41
2022-10-23T09:22:58.402Z,95451.63
2022-10-23T09:25:30.302Z,95462.22
2022-10-23T09:28:01.637Z,95460.03
2022-10-23T09:30:34.809Z,95459.13
2022-10-23T09:33:14.101Z,95462.16
2022-10-23T09:35:54.161Z,95461.91
2022-10-23T09:38:29.821Z,95457.66
2022-10-23T09:41:00.522Z,95464.63
2022-10-23T09:43:28.021Z,95468.88
2022-10-23T09:46:00.642Z,95459.56
2022-10-23T09:48:28.741Z,95461.75
2022-10-23T09:50:57.483Z,95466.81
2022-10-23T09:53:33.183Z,95469.50
2022-10-23T09:56:04.382Z,95475.16
2022-10-23T09:58:36.082Z,95480.25
2022-10-23T10:01:04.420Z,95476.28
2022-10-23T10:03:32.062Z,95468.53
2022-10-23T10:06:01.403Z,95483.44
2022-10-23T10:08:43.933Z,95477.63
2022-10-23T10:11:20.702Z,95482.38
2022-10-23T10:14:19.081Z,95482.94
2022-10-23T10:16:54.387Z,95496.22
2022-10-23T10:19:36.621Z,95515.38
2022-10-23T10:22:17.141Z,95523.31
2022-10-23T10:24:53.520Z,95512.34
2022-10-23T10:27:38.341Z,95521.66
2022-10-23T10:30:13.368Z,95515.28
2022-10-23T10:32:47.081Z,95502.97
2022-10-23T10:35:25.088Z,95515.25
2022-10-23T10:38:20.223Z,95490.75
2022-10-23T10:41:06.902Z,95482.25
2022-10-23T10:43:47.863Z,95464.69
2022-10-23T10:46:26.992Z,95472.19
2022-10-23T10:49:01.885Z,95474.84
2022-10-23T10:51:34.867Z,95474.91
2022-10-23T10:54:18.520Z,95473.03
2022-10-23T10:56:48.462Z,95479.19
2022-10-23T10:59:24.063Z,95494.59
2022-10-23T11:01:59.517Z,95498.59
2022-10-23T11:04:36.920Z,95505.25
2022-10-23T11:07:11.445Z,95456.28
2022-10-23T11:09:39.443Z,95423.78
2022-10-23T11:12:06.781Z,95414.94
2022-10-23T11:14:35.540Z,95436.19
2022-10-23T11:17:11.261Z,95444.47
2022-10-23T11:19:45.642Z,95425.06
2022-10-23T11:22:26.200Z,95454.06
2022-10-23T11:25:26.482Z,95433.84
2022-10-23T11:28:17.522Z,95418.16
2022-10-23T11:31:11.558Z,95436.00
2022-10-23T11:34:12.461Z,95429.91
2022-10-23T11:36:50.883Z,95427.56
2022-10-23T11:39:25.642Z,95434.19
2022-10-23T11:41:55.963Z,95421.94
2022-10-23T11:44:27.420Z,95404.66
2022-10-23T11:47:04.701Z,95389.75
2022-10-23T11:49:32.210Z,95397.47
2022-10-23T11:52:05.601Z,95395.88
2022-10-23T11:54:32.761Z,95399.03
2022-10-23T11:57:12.362Z,95401.97
2022-10-23T11:59:54.964Z,95398.53
2022-10-23T12:02:32.595Z,95401.97
2022-10-23T12:05:05.683Z,95399.06
2022-10-23T12:07:37.383Z,95385.75
2022-10-23T12:10:08.262Z,95380.69
2022-10-23T12:12:37.142Z,95388.69
2022-10-23T12:15:22.583Z,95380.44
2022-10-23T12:17:52.782Z,95365.78
2022-10-23T12:20:28.325Z,95359.09
2022-10-23T12:23:15.753Z,95367.38
2022-10-23T12:26:02.745Z,95367.38
2022-10-23T12:28:40.002Z,95365.00
2022-10-23T12:31:25.441Z,95374.56
2022-10-23T12:34:06.962Z,95363.66
2022-10-23T12:36:57.661Z,95354.03
2022-10-23T12:39:29.243Z,95339.94
2022-10-23T12:41:57.641Z,95332.47
2022-10-23T12:44:26.373Z,95327.97
2022-10-23T12:46:57.480Z,95326.38
2022-10-23T12:49:29.301Z,95334.88
2022-10-23T12:51:58.321Z,95337.25
2022-10-23T12:54:25.623Z,95332.69
2022-10-23T12:56:54.201Z,95336.19
2022-10-23T12:59:25.481Z,95347.09
2022-10-23T13:01:53.860Z,95337.19
2022-10-23T13:04:29.499Z,95337.19
2022-10-23T13:06:58.781Z,95339.88
2022-10-23T13:09:32.181Z,95340.38
2022-10-23T13:12:02.742Z,95331.84
2022-10-23T13:14:39.426Z,95332.91
2022-10-23T13:17:11.883Z,95324.66
2022-10-23T13:19:40.360Z,95321.16
2022-10-23T13:22:19.661Z,95324.09
2022-10-23T13:24:47.619Z,95315.28
2022-10-23T13:27:26.806Z,95309.47
2022-10-23T13:29:54.084Z,95323.16
2022-10-23T13:32:25.401Z,95334.38
2022-10-23T13:35:04.062Z,95330.88
2022-10-23T13:40:23.942Z,95315.22
2022-10-23T13:42:52.101Z,95307.47
2022-10-23T13:45:22.109Z,95301.63
2022-10-23T13:47:49.721Z,95308.78
2022-10-23T13:50:18.562Z,95322.06
2022-10-23T13:52:46.062Z,95304.78
2022-10-23T13:55:22.424Z,95296.81
2022-10-23T13:57:49.621Z,95305.03
2022-10-23T14:00:17.704Z,95307.16
2022-10-23T14:02:45.054Z,95289.59
2022-10-23T14:05:12.447Z,95268.06
2022-10-23T14:07:41.101Z,95259.28
2022-10-23T14:10:08.802Z,95277.34
2022-10-23T14:12:40.633Z,95278.41
2022-10-23T14:15:09.261Z,95285.88
2022-10-23T14:17:36.541Z,95278.22
2022-10-23T14:20:06.092Z,95285.41
2022-10-23T14:22:33.645Z,95278.72
2022-10-23T14:25:02.121Z,95263.53
2022-10-23T14:27:30.243Z,95266.75
2022-10-23T14:29:57.281Z,95273.69
2022-10-23T14:32:24.363Z,95265.69
2022-10-23T14:34:55.225Z,95269.44
2022-10-23T14:37:22.622Z,95270.75
2022-10-23T14:39:50.418Z,95280.34
2022-10-23T14:42:19.101Z,95279.53
2022-10-23T14:44:46.144Z,95273.41
2022-10-23T14:47:13.142Z,95252.38
2022-10-23T14:49:40.439Z,95254.19
2022-10-23T14:52:08.377Z,95270.91
2022-10-23T14:54:35.643Z,95259.47
2022-10-23T14:57:03.474Z,95254.94
2022-10-23T14:59:32.003Z,95257.06
2022-10-23T15:01:59.045Z,95263.44
2022-10-23T15:04:26.703Z,95253.31
2022-10-23T15:06:53.822Z,95252.25
2022-10-23T15:09:20.942Z,95250.41
2022-10-23T15:11:48.174Z,95243.75
2022-10-23T15:14:15.261Z,95243.72
2022-10-23T15:16:43.826Z,95248.00
2022-10-23T15:19:17.133Z,95230.47
2022-10-23T15:21:46.121Z,95229.53
2022-10-23T15:24:13.322Z,95231.94
2022-10-23T15:26:40.382Z,95229.78
2022-10-23T15:29:07.423Z,95232.47
2022-10-23T15:31:44.525Z,95228.47
2022-10-23T15:34:13.684Z,95237.81
2022-10-23T15:36:41.241Z,95236.72
2022-10-23T15:39:09.923Z,95243.88
2022-10-23T15:41:40.124Z,95246.56
2022-10-23T15:44:08.942Z,95256.41
2022-10-23T15:46:36.184Z,95272.88
2022-10-23T15:49:05.042Z,95263.84
2022-10-23T15:51:32.263Z,95278.41
2022-10-23T15:53:59.343Z,95269.63
2022-10-23T15:56:26.626Z,95255.56
2022-10-23T15:58:53.691Z,95249.97
2022-10-23T16:01:20.929Z,95240.13
2022-10-23T16:03:48.102Z,95260.31
2022-10-23T16:06:17.905Z,95253.16
2022-10-23T16:08:46.144Z,95255.53
2022-10-23T16:11:16.282Z,95269.38
2022-10-23T16:13:43.444Z,95273.69
2022-10-23T16:16:11.242Z,95278.72
2022-10-23T16:18:38.302Z,95288.31
2022-10-23T16:21:05.782Z,95291.97
2022-10-23T16:23:34.942Z,95295.16
2022-10-23T16:26:04.162Z,95294.88
2022-10-23T16:28:31.662Z,95307.06
2022-10-23T16:31:00.383Z,95304.41
2022-10-23T16:33:27.483Z,95293.78
2022-10-23T16:35:54.522Z,95290.09
2022-10-23T16:38:21.562Z,95303.91
2022-10-23T16:40:53.542Z,95300.72
2022-10-23T16:43:20.721Z,95316.91
2022-10-23T16:45:47.781Z,95320.09
2022-10-23T16:48:15.062Z,95312.59
2022-10-23T16:50:42.145Z,95308.09
2022-10-23T16:53:09.283Z,95316.09
2022-10-23T16:55:40.602Z,95318.78
2022-10-23T16:58:09.163Z,95317.44
2022-10-23T17:00:36.222Z,95322.75
2022-10-23T17:03:05.038Z,95338.19
2022-10-23T17:05:34.102Z,95342.19
2022-10-23T17:08:01.474Z,95349.09
2022-10-23T17:10:28.601Z,95346.97
2022-10-23T17:12:55.682Z,95360.00
2022-10-23T17:15:24.226Z,95380.19
2022-10-23T17:17:51.261Z,95378.88
2022-10-23T17:20:18.484Z,95403.88
2022-10-23T17:22:45.501Z,95411.84
2022-10-23T17:25:12.668Z,95433.63
2022-10-23T17:27:39.816Z,95460.75
2022-10-23T17:30:12.407Z,95474.53
2022-10-23T17:32:41.532Z,95495.81
2022-10-23T17:35:09.362Z,95491.03
2022-10-23T17:37:36.364Z,95517.34
2022-10-23T17:40:03.862Z,95532.97
2022-10-23T17:42:31.201Z,95543.03
2022-10-23T17:44:58.341Z,95530.72
2022-10-23T17:47:25.481Z,95550.59
2022-10-23T17:49:54.037Z,95547.09
2022-10-23T17:52:21.141Z,95569.34
2022-10-23T17:54:51.921Z,95593.19
2022-10-23T17:57:19.131Z,95580.88
2022-10-23T17:59:46.381Z,95585.63
2022-10-23T18:02:13.530Z,95583.97
2022-10-23T18:04:40.663Z,95588.72
2022-10-23T18:07:09.308Z,95589.00
2022-10-23T18:09:36.389Z,95584.38
2022-10-23T18:12:03.701Z,95586.50
2022-10-23T18:14:32.466Z,95584.88
2022-10-23T18:17:00.801Z,95576.34
2022-10-23T18:19:27.883Z,95564.44
2022-10-23T18:21:54.900Z,95559.97
2022-10-23T18:24:23.402Z,95570.13
2022-10-23T18:26:50.443Z,95586.06
2022-10-23T18:29:18.528Z,95591.19
2022-10-23T18:31:47.082Z,95596.03
2022-10-23T18:34:17.121Z,95598.16
2022-10-23T18:36:44.534Z,95587.53
2022-10-23T18:39:14.864Z,95584.81
2022-10-23T18:41:45.760Z,95565.41
2022-10-23T18:44:16.610Z,95569.66
2022-10-23T18:46:44.261Z,95560.88
2022-10-23T18:49:11.943Z,95618.75
2022-10-23T18:51:39.561Z,95592.44
2022-10-23T18:54:11.110Z,95627.28
2022-10-23T18:56:38.245Z,95626.84
2022-10-23T18:59:10.178Z,95629.75
2022-10-23T19:01:37.393Z,95614.63
2022-10-23T19:04:05.062Z,95615.97
2022-10-23T19:06:34.604Z,95590.41
2022-10-23T19:09:01.867Z,95586.97
2022-10-23T19:11:29.433Z,95568.63
2022-10-23T19:13:56.627Z,95504.44
2022-10-23T19:16:30.542Z,95513.22
2022-10-23T19:19:02.982Z,95550.00
2022-10-23T19:21:36.749Z,95530.53
2022-10-23T19:24:08.721Z,95518.22
2022-10-23T19:26:39.782Z,95489.25
2022-10-23T19:29:10.445Z,95479.97
2022-10-23T19:31:39.700Z,95478.06
2022-10-23T19:34:06.719Z,95519.94
2022-10-23T19:36:33.796Z,95519.50
2022-10-23T19:39:00.842Z,95520.97
2022-10-23T19:41:27.881Z,95505.41
2022-10-23T19:43:54.961Z,95486.78
2022-10-23T19:46:22.103Z,95483.13
2022-10-23T19:48:50.609Z,95475.31
2022-10-23T19:51:17.712Z,95448.31
2022-10-23T19:53:45.177Z,95443.28
2022-10-23T19:56:13.083Z,95440.78
2022-10-23T19:58:40.745Z,95448.53
2022-10-23T20:01:10.506Z,95453.22
2022-10-23T20:03:38.785Z,95461.72
2022-10-23T20:06:10.440Z,95459.69
2022-10-23T20:08:37.542Z,95455.69
2022-10-23T20:11:05.341Z,95449.56
2022-10-23T20:13:32.625Z,95451.91
2022-10-23T20:15:59.911Z,95447.28
2022-10-23T20:18:27.123Z,95449.00
2022-10-23T20:20:54.943Z,95438.25
2022-10-23T20:23:23.464Z,95479.63
2022-10-23T20:25:50.582Z,95464.41
2022-10-23T20:28:17.762Z,95472.72
2022-10-23T20:30:44.861Z,95488.84
2022-10-23T20:33:11.902Z,95512.72
2022-10-23T20:35:40.202Z,95492.03
2022-10-23T20:38:08.661Z,95463.41
2022-10-23T20:40:37.721Z,95439.97
2022-10-23T20:43:04.880Z,95424.25
2022-10-23T20:45:31.922Z,95428.75
2022-10-23T20:47:59.184Z,95440.53
2022-10-23T20:50:26.322Z,95445.09
2022-10-23T20:52:53.462Z,95452.88
2022-10-23T20:55:20.544Z,95467.69
2022-10-23T20:57:49.119Z,95489.50
2022-10-23T21:00:16.347Z,95482.06
2022-10-23T21:02:47.022Z,95489.50
2022-10-23T21:05:15.839Z,95504.06
2022-10-23T21:07:42.864Z,95516.25
2022-10-23T21:10:10.221Z,95494.16
2022-10-23T21:12:37.342Z,95484.06
2022-10-23T21:15:07.660Z,95486.19
2022-10-23T21:17:34.764Z,95491.69
2022-10-23T21:20:01.921Z,95504.16
2022-10-23T21:22:28.979Z,95495.63
2022-10-23T21:24:56.059Z,95492.16
2022-10-23T21:27:23.061Z,95484.47
2022-10-23T21:29:50.284Z,95475.16
2022-10-23T21:32:18.761Z,95479.44
2022-10-23T21:34:45.793Z,95462.50
2022-10-23T21:37:14.204Z,95454.31
2022-10-23T21:39:42.300Z,95450.88
2022-10-23T21:42:09.393Z,95469.38
2022-10-23T21:44:36.484Z,95453.63
2022-10-23T21:47:03.801Z,95487.00
2022-10-23T21:49:32.345Z,95481.25
2022-10-23T21:51:59.422Z,95459.84
2022-10-23T21:54:26.525Z,95456.38
2022-10-23T21:56:53.838Z,95475.56
2022-10-23T21:59:23.620Z,95492.03
2022-10-23T22:01:50.879Z,95499.00
2022-10-23T22:04:19.981Z,95476.22
2022-10-23T22:06:50.119Z,95483.44
2022-10-23T22:09:19.959Z,95486.31
2022-10-23T22:11:48.921Z,95477.50
2022-10-23T22:14:16.020Z,95486.00
2022-10-23T22:16:43.341Z,95493.06
2022-10-23T22:19:11.843Z,95477.47
2022-10-23T22:21:39.905Z,95457.91
2022-10-23T22:24:09.383Z,95437.44
2022-10-23T22:26:39.041Z,95477.31
2022-10-23T22:29:08.601Z,95483.28
2022-10-23T22:31:36.761Z,95518.59
2022-10-23T22:34:18.503Z,95542.69
2022-10-23T22:36:53.722Z,95540.84
2022-10-23T22:39:22.780Z,95597.16
2022-10-23T22:41:49.963Z,95599.09
2022-10-23T22:44:17.004Z,95577.53
2022-10-23T22:46:45.062Z,95603.94
2022-10-23T22:49:12.441Z,95603.34
2022-10-23T22:51:39.815Z,95572.88
2022-10-23T22:54:07.120Z,95585.84
2022-10-23T22:56:36.209Z,95561.97
2022-10-23T22:59:04.104Z,95571.63
2022-10-23T23:01:34.308Z,95578.47
2022-10-23T23:04:13.756Z,95565.09
2022-10-23T23:06:47.594Z,95593.75
2022-10-23T23:11:51.540Z,95552.13
2022-10-23T23:14:23.085Z,95545.72
2022-10-23T23:16:52.261Z,95543.50
2022-10-23T23:19:19.429Z,95539.28
2022-10-23T23:21:46.570Z,95554.50
2022-10-23T23:24:13.950Z,95552.16
2022-10-23T23:26:41.062Z,95539.47
2022-10-23T23:29:09.521Z,95555.31
2022-10-23T23:31:36.560Z,95560.34
2022-10-23T23:34:03.621Z,95559.06
2022-10-23T23:36:30.680Z,95588.34
2022-10-23T23:38:58.557Z,95597.81
2022-10-23T23:41:28.181Z,95592.28
2022-10-23T23:43:56.779Z,95568.34
2022-10-23T23:46:26.059Z,95586.84
2022-10-23T23:48:53.181Z,95612.28
2022-10-23T23:51:22.786Z,95608.66
2022-10-23T23:53:51.123Z,95591.47
2022-10-23T23:56:19.740Z,95591.63
2022-10-23T23:58:47.804Z,95568.34
